| Date Time MST |
Temp °F |
RH % |
DewPt °F |
Wind mph |
Dir ° |
Gust mph |
Dir ° |
Press in Hg |
Solar W/m^2 |
Prec in |
|---|---|---|---|---|---|---|---|---|---|---|
| 2026-05-05 06:35 | 32.7 | 94.7 | 31.4 | 3.3 | 291 | 4.1 | 304 | 24.843 | 12.7 | 0.00 |
| 2026-05-05 06:30 | 32.8 | 94.7 | 31.4 | 3.6 | 299 | 4.0 | 303 | 24.839 | 10.8 | 0.00 |
| 2026-05-05 06:25 | 32.9 | 94.4 | 31.4 | 3.5 | 298 | 4.3 | 286 | 24.839 | 9.7 | 0.00 |
| 2026-05-05 06:20 | 33.1 | 94.5 | 31.6 | 3.6 | 283 | 4.6 | 282 | 24.839 | 9.6 | 0.01 |
| 2026-05-05 06:15 | 33.2 | 94.3 | 31.8 | 3.3 | 286 | 4.6 | 287 | 24.834 | 9.5 | 0.00 |
| 2026-05-05 06:10 | 33.4 | 94.3 | 31.9 | 3.4 | 299 | 4.0 | 291 | 24.832 | 7.4 | 0.00 |
| 2026-05-05 06:05 | 33.5 | 94.4 | 32.0 | 3.2 | 265 | 4.1 | 275 | 24.835 | 5.2 | 0.00 |
| 2026-05-05 06:00 | 33.4 | 94.3 | 32.0 | 4.3 | 273 | 5.3 | 274 | 24.835 | 3.7 | 0.01 |
| 2026-05-05 05:55 | 33.4 | 94.4 | 32.0 | 5.1 | 268 | 6.3 | 276 | 24.831 | 4.5 | 0.01 |
| 2026-05-05 05:50 | 33.4 | 94.5 | 32.0 | 5.7 | 279 | 7.0 | 278 | 24.828 | 7.5 | 0.00 |
| 2026-05-05 05:45 | 33.2 | 94.4 | 31.8 | 5.0 | 268 | 6.8 | 278 | 24.827 | 8.2 | 0.01 |
| 2026-05-05 05:40 | 33.0 | 94.4 | 31.6 | 4.9 | 276 | 6.4 | 287 | 24.825 | 9.2 | 0.00 |
| 2026-05-05 05:35 | 33.0 | 94.1 | 31.5 | 3.7 | 291 | 4.5 | 293 | 24.824 | 9.4 | 0.00 |
| 2026-05-05 05:30 | 33.1 | 93.9 | 31.5 | 4.0 | 289 | 5.3 | 290 | 24.821 | 5.4 | 0.01 |
| 2026-05-05 05:25 | 33.3 | 93.6 | 31.6 | 4.6 | 291 | 5.5 | 296 | 24.820 | 3.3 | 0.00 |
| 2026-05-05 05:20 | 33.6 | 93.1 | 31.8 | 5.8 | 288 | 7.1 | 286 | 24.818 | 3.0 | 0.00 |
| 2026-05-05 05:15 | 34.1 | 92.8 | 32.2 | 6.5 | 295 | 8.6 | 300 | 24.817 | 2.7 | 0.00 |
| 2026-05-05 05:10 | 34.6 | 92.8 | 32.7 | 4.9 | 301 | 6.2 | 312 | 24.820 | 2.0 | 0.01 |
| 2026-05-05 05:05 | 34.7 | 92.8 | 32.9 | 4.9 | 287 | 6.2 | 279 | 24.823 | 1.4 | 0.01 |
| 2026-05-05 05:00 | 35.0 | 92.9 | 33.1 | 5.1 | 277 | 6.1 | 275 | 24.824 | 1.0 | 0.00 |
| 2026-05-05 04:55 | 35.0 | 93.0 | 33.2 | 4.5 | 280 | 5.8 | 264 | 24.825 | 1.0 | 0.01 |
| 2026-05-05 04:50 | 34.8 | 93.3 | 33.1 | 4.2 | 274 | 5.7 | 280 | 24.824 | 1.0 | 0.00 |
| 2026-05-05 04:45 | 34.7 | 93.4 | 33.0 | 4.9 | 281 | 6.0 | 284 | 24.823 | 0.9 | 0.01 |
| 2026-05-05 04:40 | 34.5 | 93.5 | 32.8 | 5.0 | 296 | 7.0 | 298 | 24.818 | 0.7 | 0.00 |
| 2026-05-05 04:35 | 34.4 | 93.3 | 32.7 | 5.1 | 272 | 6.8 | 289 | 24.818 | 0.6 | 0.01 |
| 2026-05-05 04:30 | 34.5 | 93.3 | 32.8 | 5.4 | 279 | 6.5 | 284 | 24.817 | 0.7 | 0.01 |
| 2026-05-05 04:25 | 34.6 | 93.6 | 32.9 | 6.1 | 286 | 7.7 | 275 | 24.816 | 0.7 | 0.01 |
| 2026-05-05 04:20 | 34.5 | 93.8 | 32.9 | 6.3 | 283 | 8.5 | 276 | 24.813 | 0.6 | 0.00 |
| 2026-05-05 04:15 | 34.3 | 94.2 | 32.8 | 5.7 | 286 | 6.8 | 278 | 24.817 | 0.6 | 0.01 |
| 2026-05-05 04:10 | 34.0 | 94.4 | 32.5 | 6.1 | 270 | 7.4 | 272 | 24.817 | 0.6 | 0.01 |
| Date Time MST |
Temp °C |
RH % |
DewPt °C |
Wind m/s |
Dir ° |
Gust m/s |
Dir ° |
Press hPa |
Solar W/m^2 |
Prec mm |
|---|---|---|---|---|---|---|---|---|---|---|
| 2026-05-05 06:35 | 0.4 | 94.7 | -0.3 | 1.5 | 291 | 1.8 | 304 | 841.27 | 12.7 | 0.00 |
| 2026-05-05 06:30 | 0.4 | 94.7 | -0.3 | 1.6 | 299 | 1.8 | 303 | 841.14 | 10.8 | 0.00 |
| 2026-05-05 06:25 | 0.5 | 94.4 | -0.3 | 1.6 | 298 | 1.9 | 286 | 841.15 | 9.7 | 0.00 |
| 2026-05-05 06:20 | 0.6 | 94.5 | -0.2 | 1.6 | 283 | 2.1 | 282 | 841.14 | 9.6 | 0.25 |
| 2026-05-05 06:15 | 0.7 | 94.3 | -0.1 | 1.5 | 286 | 2.1 | 287 | 840.98 | 9.5 | 0.00 |
| 2026-05-05 06:10 | 0.8 | 94.3 | -0.0 | 1.5 | 299 | 1.8 | 291 | 840.92 | 7.4 | 0.00 |
| 2026-05-05 06:05 | 0.8 | 94.4 | 0.0 | 1.5 | 265 | 1.8 | 275 | 841.02 | 5.2 | 0.00 |
| 2026-05-05 06:00 | 0.8 | 94.3 | -0.0 | 1.9 | 273 | 2.4 | 274 | 841.01 | 3.7 | 0.25 |
| 2026-05-05 05:55 | 0.8 | 94.4 | -0.0 | 2.3 | 268 | 2.8 | 276 | 840.87 | 4.5 | 0.25 |
| 2026-05-05 05:50 | 0.8 | 94.5 | -0.0 | 2.6 | 279 | 3.1 | 278 | 840.78 | 7.5 | 0.00 |
| 2026-05-05 05:45 | 0.7 | 94.4 | -0.1 | 2.2 | 268 | 3.0 | 278 | 840.75 | 8.2 | 0.25 |
| 2026-05-05 05:40 | 0.6 | 94.4 | -0.2 | 2.2 | 276 | 2.9 | 287 | 840.67 | 9.2 | 0.00 |
| 2026-05-05 05:35 | 0.5 | 94.1 | -0.3 | 1.6 | 291 | 2.0 | 293 | 840.64 | 9.4 | 0.00 |
| 2026-05-05 05:30 | 0.6 | 93.9 | -0.3 | 1.8 | 289 | 2.4 | 290 | 840.53 | 5.4 | 0.25 |
| 2026-05-05 05:25 | 0.7 | 93.6 | -0.2 | 2.0 | 291 | 2.5 | 296 | 840.50 | 3.3 | 0.00 |
| 2026-05-05 05:20 | 0.9 | 93.1 | -0.1 | 2.6 | 288 | 3.2 | 286 | 840.43 | 3.0 | 0.00 |
| 2026-05-05 05:15 | 1.2 | 92.8 | 0.1 | 2.9 | 295 | 3.8 | 300 | 840.41 | 2.7 | 0.00 |
| 2026-05-05 05:10 | 1.4 | 92.8 | 0.4 | 2.2 | 301 | 2.8 | 312 | 840.50 | 2.0 | 0.25 |
| 2026-05-05 05:05 | 1.5 | 92.8 | 0.5 | 2.2 | 287 | 2.8 | 279 | 840.62 | 1.4 | 0.25 |
| 2026-05-05 05:00 | 1.7 | 92.9 | 0.6 | 2.3 | 277 | 2.7 | 275 | 840.64 | 1.0 | 0.00 |
| 2026-05-05 04:55 | 1.6 | 93.0 | 0.6 | 2.0 | 280 | 2.6 | 264 | 840.66 | 1.0 | 0.25 |
| 2026-05-05 04:50 | 1.6 | 93.3 | 0.6 | 1.9 | 274 | 2.5 | 280 | 840.64 | 1.0 | 0.00 |
| 2026-05-05 04:45 | 1.5 | 93.4 | 0.5 | 2.2 | 281 | 2.7 | 284 | 840.59 | 0.9 | 0.25 |
| 2026-05-05 04:40 | 1.4 | 93.5 | 0.5 | 2.3 | 296 | 3.1 | 298 | 840.43 | 0.7 | 0.00 |
| 2026-05-05 04:35 | 1.4 | 93.3 | 0.4 | 2.3 | 272 | 3.0 | 289 | 840.43 | 0.6 | 0.25 |
| 2026-05-05 04:30 | 1.4 | 93.3 | 0.4 | 2.4 | 279 | 2.9 | 284 | 840.40 | 0.7 | 0.25 |
| 2026-05-05 04:25 | 1.4 | 93.6 | 0.5 | 2.7 | 286 | 3.5 | 275 | 840.38 | 0.7 | 0.25 |
| 2026-05-05 04:20 | 1.4 | 93.8 | 0.5 | 2.8 | 283 | 3.8 | 276 | 840.28 | 0.6 | 0.00 |
| 2026-05-05 04:15 | 1.3 | 94.2 | 0.5 | 2.5 | 286 | 3.1 | 278 | 840.39 | 0.6 | 0.25 |
| 2026-05-05 04:10 | 1.1 | 94.4 | 0.3 | 2.7 | 270 | 3.3 | 272 | 840.41 | 0.6 | 0.25 |

Research Associate II
Cooperative Institute for Research in the Atmosphere
Colorado State University
1375 Campus Delivery
Fort Collins, CO 80523-1375
Teams: